Rogerslacy, Texas
Current Conditions -  °F | °C
As of 10:35 PM on Monday 20 Oct 2014 (Local Time) from KT65 Reporting Station
Clear Clear  
Wind Chill: 71°   Ceiling: Unl
Heat Index: 71°   Visibility: 10mi
Dew Point: 67°   Wind: 3mph
Humidity: 86%   Direction: 30°NNE
Pressure: 29.96"   Gusts: NA
Location:  26.2692°N, 97.8326°W
Report Text: KT65 210335Z AUTO 03003KT 10SM CLR 22/19 A2996 RMK AO2 T02170193
Loading
Personal Weather Stations






























Interactive Weather Map New forecast layout! Learn more

10-Day Weather Forecast

Advertisements
Track Severe Weather on mobile